Time;durP1;ratioP1;P1;durP2;ratioP2;P2;SDS_P1;SDS_P2;PMS_P1;PMS_P2;Temp;Humidity;BMP_temperature;BMP_pressure;BME280_temperature;BME280_humidity;BME280_pressure;Samples;Min_cycle;Max_cycle;Signal;HPM_P1;HPM_P2
2021/11/24 00:01:12;;;;;;;7.72;5.97;;;;;;;16.06;41.76;102875.28;5033578;28;20034;-71
2021/11/24 00:03:37;;;;;;;7.35;5.32;;;;;;;16.08;41.79;102862.84;5033560;28;20076;-78
2021/11/24 00:06:03;;;;;;;8.90;5.38;;;;;;;16.17;41.47;102856.66;5033164;28;20037;-70
2021/11/24 00:08:29;;;;;;;7.38;5.65;;;;;;;16.20;41.54;102859.63;5033607;28;20037;-70
2021/11/24 00:10:55;;;;;;;7.55;5.65;;;;;;;16.27;41.25;102862.03;5033323;28;20490;-70
2021/11/24 00:13:21;;;;;;;8.27;5.97;;;;;;;16.29;41.33;102857.84;5015687;28;20033;-70
2021/11/24 00:15:46;;;;;;;8.52;5.43;;;;;;;16.26;41.27;102852.09;5033649;28;20026;-70
2021/11/24 00:18:12;;;;;;;8.05;5.32;;;;;;;16.27;41.24;102848.22;5033300;28;20562;-70
2021/11/24 00:20:37;;;;;;;5.93;4.88;;;;;;;16.32;41.03;102843.44;5033372;28;20093;-70
2021/11/24 00:23:03;;;;;;;7.95;5.88;;;;;;;16.31;41.19;102833.50;5033135;28;20434;-70
2021/11/24 00:25:29;;;;;;;6.50;5.07;;;;;;;16.22;41.20;102829.81;5032461;28;20025;-82
2021/11/24 00:27:55;;;;;;;6.95;5.03;;;;;;;16.23;41.04;102825.94;5033081;28;20112;-70
2021/11/24 00:30:21;;;;;;;7.13;5.43;;;;;;;16.13;41.44;102830.81;5033394;28;20051;-70
2021/11/24 00:32:46;;;;;;;6.82;5.32;;;;;;;16.20;41.20;102822.97;5033045;28;20493;-70
2021/11/24 00:35:12;;;;;;;8.20;5.93;;;;;;;16.06;41.40;102815.44;5032979;28;20471;-70
2021/11/24 00:37:38;;;;;;;10.35;5.72;;;;;;;16.12;41.42;102809.84;5032875;28;20480;-70
2021/11/24 00:40:05;;;;;;;7.95;6.18;;;;;;;16.15;41.05;102801.78;5032938;28;20108;-76
2021/11/24 00:42:30;;;;;;;6.97;5.32;;;;;;;16.06;41.11;102798.91;5032807;28;20044;-70
2021/11/24 00:44:56;;;;;;;7.80;5.47;;;;;;;16.01;41.27;102801.72;5011743;28;20050;-70
2021/11/24 00:47:22;;;;;;;7.30;4.68;;;;;;;15.80;41.46;102798.50;5013112;28;20425;-70
2021/11/24 00:49:47;;;;;;;8.27;5.95;;;;;;;15.78;41.36;102802.63;5013066;28;20026;-70
2021/11/24 00:52:13;;;;;;;7.78;5.90;;;;;;;15.85;40.98;102794.00;5013019;28;20481;-71
2021/11/24 00:54:38;;;;;;;7.65;5.95;;;;;;;15.77;41.21;102798.25;5013054;28;20026;-70
2021/11/24 00:57:05;;;;;;;9.45;6.13;;;;;;;15.76;41.09;102789.16;5013004;28;20392;-70
2021/11/24 00:59:31;;;;;;;8.82;6.40;;;;;;;15.67;41.33;102785.44;5013087;28;20120;-70
2021/11/24 01:01:57;;;;;;;9.02;6.03;;;;;;;15.60;41.30;102786.91;5012986;28;20087;-70
2021/11/24 01:04:23;;;;;;;7.30;6.38;;;;;;;15.60;41.39;102784.16;5012904;28;20038;-83
2021/11/24 01:06:49;;;;;;;9.35;6.03;;;;;;;15.60;41.57;102773.94;5012855;28;20099;-70
2021/11/24 01:09:14;;;;;;;9.20;5.93;;;;;;;15.63;41.31;102775.31;5012744;28;20026;-70
2021/11/24 01:11:40;;;;;;;7.40;5.43;;;;;;;15.52;41.51;102774.63;5012772;28;20037;-70
2021/11/24 01:14:06;;;;;;;8.63;6.15;;;;;;;15.59;41.46;102771.50;5012792;28;20030;-71
2021/11/24 01:16:32;;;;;;;9.55;6.30;;;;;;;15.58;41.56;102767.09;5012718;28;20033;-70
2021/11/24 01:18:58;;;;;;;8.90;6.18;;;;;;;15.58;41.38;102753.31;5012807;28;20053;-75
2021/11/24 01:21:24;;;;;;;10.88;6.05;;;;;;;15.54;41.23;102747.56;5012751;28;20030;-70
2021/11/24 01:23:49;;;;;;;11.35;6.35;;;;;;;15.35;41.54;102739.31;5011356;28;20055;-70
2021/11/24 01:26:16;;;;;;;10.73;6.30;;;;;;;15.39;41.52;102745.03;5012683;28;20018;-70
2021/11/24 01:28:42;;;;;;;7.68;5.80;;;;;;;15.39;41.52;102745.84;5012892;28;20033;-73
2021/11/24 01:31:07;;;;;;;9.90;6.03;;;;;;;15.39;41.34;102745.84;5011372;28;20025;-71
2021/11/24 01:33:33;;;;;;;7.75;5.75;;;;;;;15.40;41.08;102741.97;5012489;28;20026;-70
2021/11/24 01:35:59;;;;;;;14.73;7.28;;;;;;;15.34;41.17;102743.19;5013889;28;20021;-70
2021/11/24 01:38:25;;;;;;;10.90;6.80;;;;;;;15.20;41.54;102734.03;5016530;28;20083;-70
2021/11/24 01:40:51;;;;;;;7.07;5.72;;;;;;;15.15;41.55;102729.38;5016615;28;20029;-71
2021/11/24 01:43:16;;;;;;;9.18;5.95;;;;;;;15.11;41.51;102722.00;5017575;28;20534;-70
2021/11/24 01:45:42;;;;;;;9.57;6.75;;;;;;;14.96;41.97;102721.13;5018343;28;20113;-70
2021/11/24 01:48:08;;;;;;;7.93;5.60;;;;;;;15.04;41.78;102716.03;5036022;28;20025;-70
2021/11/24 01:50:34;;;;;;;7.13;5.20;;;;;;;15.13;41.38;102715.09;5036102;28;20104;-70
2021/11/24 01:53:00;;;;;;;9.13;5.78;;;;;;;15.11;41.61;102711.00;5036052;28;20027;-81
2021/11/24 01:55:26;;;;;;;9.13;5.85;;;;;;;15.14;41.43;102711.22;5036022;28;20057;-70
2021/11/24 01:57:53;;;;;;;7.13;6.15;;;;;;;14.94;42.03;102706.81;5036080;28;20053;-72
2021/11/24 02:00:31;;;;;;;7.53;5.88;;;;;;;15.06;41.69;102702.81;5018377;28;20017;-80
2021/11/24 02:02:58;;;;;;;8.32;5.57;;;;;;;15.09;41.70;102699.47;5035784;28;20446;-70
2021/11/24 02:05:24;;;;;;;6.10;4.72;;;;;;;15.06;41.43;102691.81;5036173;28;20027;-83
2021/11/24 02:07:50;;;;;;;8.40;5.53;;;;;;;15.02;41.62;102682.50;5035721;28;20479;-70
2021/11/24 02:10:20;;;;;;;6.80;5.13;;;;;;;15.12;41.59;102682.38;5035772;28;20034;-70
2021/11/24 02:12:46;;;;;;;12.15;5.03;;;;;;;15.04;41.42;102670.09;5036030;28;20029;-74
2021/11/24 02:15:11;;;;;;;8.95;6.15;;;;;;;14.95;41.56;102667.16;5035890;28;20034;-70
2021/11/24 02:17:38;;;;;;;9.13;5.20;;;;;;;14.90;41.77;102652.66;5035593;28;20035;-70
2021/11/24 02:20:05;;;;;;;7.80;5.18;;;;;;;14.89;41.42;102643.59;5035568;28;20537;-70
2021/11/24 02:22:30;;;;;;;7.97;5.50;;;;;;;14.78;41.67;102647.56;5034512;28;20431;-70
2021/11/24 02:24:56;;;;;;;7.00;5.30;;;;;;;14.76;41.59;102649.81;5035028;28;20029;-70
2021/11/24 02:27:21;;;;;;;9.70;5.38;;;;;;;14.71;41.62;102647.09;5033052;28;20025;-70
2021/11/24 02:29:47;;;;;;;8.90;5.85;;;;;;;14.63;41.68;102647.75;5051919;28;20039;-70
2021/11/24 02:32:14;;;;;;;9.10;5.25;;;;;;;14.54;41.79;102647.59;5055408;28;20108;-82
2021/11/24 02:34:40;;;;;;;7.78;6.18;;;;;;;14.57;41.46;102640.69;5055238;28;20071;-70
2021/11/24 02:37:06;;;;;;;7.28;5.00;;;;;;;14.55;41.75;102635.47;5055103;28;20017;-70
2021/11/24 02:39:31;;;;;;;7.47;6.05;;;;;;;14.52;41.82;102644.34;5054988;28;20031;-70
2021/11/24 02:41:58;;;;;;;9.70;5.30;;;;;;;14.48;41.77;102636.94;5055117;28;20063;-70
2021/11/24 02:44:27;;;;;;;9.23;5.75;;;;;;;14.38;41.87;102633.19;5054875;28;20114;-83
2021/11/24 02:47:07;;;;;;;8.85;6.45;;;;;;;14.28;41.98;102630.56;5054526;28;20028;-82
2021/11/24 02:49:35;;;;;;;19.98;18.30;;;;;;;14.36;41.89;102618.91;5055000;28;20029;-70
2021/11/24 02:52:00;;;;;;;10.85;6.93;;;;;;;14.47;42.10;102611.38;5054875;28;20490;-70
2021/11/24 02:54:26;;;;;;;9.90;6.78;;;;;;;14.44;41.87;102611.94;5054794;28;20060;-82
2021/11/24 02:56:52;;;;;;;8.75;6.78;;;;;;;14.50;41.61;102602.53;5055135;28;20029;-70
2021/11/24 02:59:17;;;;;;;8.13;5.93;;;;;;;14.34;42.19;102607.38;5054811;28;20021;-70
2021/11/24 03:01:43;;;;;;;8.55;7.53;;;;;;;14.42;42.08;102598.47;5054776;28;20024;-70
2021/11/24 03:04:08;;;;;;;8.90;7.05;;;;;;;14.31;42.48;102599.72;5054906;28;20029;-70
2021/11/24 03:06:36;;;;;;;9.02;7.45;;;;;;;14.35;42.66;102591.69;5054659;28;20467;-70
2021/11/24 03:09:02;;;;;;;11.52;7.75;;;;;;;14.28;42.58;102585.72;5054539;28;20028;-82
2021/11/24 03:11:28;;;;;;;8.20;7.30;;;;;;;14.47;42.07;102591.31;5054425;28;20036;-70
2021/11/24 03:13:53;;;;;;;9.93;7.28;;;;;;;14.59;41.89;102577.97;5054448;28;20029;-70
2021/11/24 03:16:19;;;;;;;10.07;7.85;;;;;;;14.50;42.31;102577.78;5036619;28;20029;-70
2021/11/24 03:18:44;;;;;;;10.88;7.68;;;;;;;14.26;42.90;102583.25;5054355;28;20032;-70
2021/11/24 03:21:10;;;;;;;12.40;7.85;;;;;;;14.50;42.39;102576.94;5054490;28;20491;-81
2021/11/24 03:23:36;;;;;;;12.18;8.73;;;;;;;14.52;42.32;102578.31;5054207;28;20494;-70
2021/11/24 03:26:01;;;;;;;11.40;8.57;;;;;;;14.46;42.72;102573.16;5054193;28;20036;-70
2021/11/24 03:28:27;;;;;;;12.02;9.20;;;;;;;14.52;42.53;102572.00;5036257;28;20025;-69
2021/11/24 03:30:53;;;;;;;11.38;8.70;;;;;;;14.62;42.45;102558.91;5054065;28;20490;-70
2021/11/24 03:33:18;;;;;;;12.18;8.95;;;;;;;14.62;42.44;102547.09;5054150;28;20029;-70
2021/11/24 03:35:44;;;;;;;13.00;10.05;;;;;;;14.54;42.80;102542.25;5053973;28;20029;-70
2021/11/24 03:38:09;;;;;;;9.52;7.80;;;;;;;14.74;42.39;102536.47;5054034;28;20028;-70
2021/11/24 03:40:35;;;;;;;12.05;8.05;;;;;;;14.80;42.30;102524.25;5053948;28;20029;-70
2021/11/24 03:43:01;;;;;;;12.82;8.70;;;;;;;14.84;42.13;102521.72;5053826;28;20470;-82
2021/11/24 03:45:31;;;;;;;11.25;8.30;;;;;;;14.74;42.50;102524.66;5053777;28;20120;-72
2021/11/24 03:47:57;;;;;;;10.13;8.50;;;;;;;14.79;42.38;102527.31;5053951;28;20120;-70
2021/11/24 03:50:23;;;;;;;12.63;8.55;;;;;;;14.85;42.16;102521.44;5053635;28;20061;-81
2021/11/24 03:52:50;;;;;;;14.38;8.30;;;;;;;14.68;42.59;102510.16;5053891;28;20378;-84
2021/11/24 03:55:16;;;;;;;10.48;8.13;;;;;;;14.76;42.50;102486.63;5035612;28;20033;-81
2021/11/24 03:57:43;;;;;;;11.55;7.82;;;;;;;14.79;41.94;102484.09;5053727;28;20033;-70
2021/11/24 04:00:16;;;;;;;9.48;8.27;;;;;;;14.66;42.56;102484.84;5053768;28;20112;-81
2021/11/24 04:02:41;;;;;;;11.40;7.78;;;;;;;14.78;42.40;102470.63;5053628;28;20029;-70
2021/11/24 04:05:09;;;;;;;12.27;8.93;;;;;;;14.79;41.90;102472.28;5053551;28;20039;-71
2021/11/24 04:07:35;;;;;;;9.90;8.48;;;;;;;14.82;41.98;102477.19;5053435;28;20032;-77
2021/11/24 04:10:01;;;;;;;9.15;8.07;;;;;;;14.87;41.92;102469.66;5053465;28;20021;-69
2021/11/24 04:12:27;;;;;;;9.80;8.32;;;;;;;14.91;41.97;102475.38;5053720;28;20457;-70
2021/11/24 04:14:53;;;;;;;10.50;9.50;;;;;;;14.97;42.10;102464.00;5053431;28;20112;-70
2021/11/24 04:17:19;;;;;;;10.82;9.02;;;;;;;15.01;41.75;102457.88;5035349;28;20609;-70
2021/11/24 04:19:44;;;;;;;9.40;8.40;;;;;;;14.98;41.77;102431.78;5053203;28;20036;-70
2021/11/24 04:22:10;;;;;;;9.88;8.77;;;;;;;14.99;42.22;102428.72;5053197;28;20029;-70
2021/11/24 04:24:37;;;;;;;13.50;9.85;;;;;;;14.81;42.17;102426.84;5053335;28;20037;-70
2021/11/24 04:27:03;;;;;;;11.80;9.40;;;;;;;14.85;41.96;102425.09;5047262;28;20021;-72
2021/11/24 04:29:28;;;;;;;11.73;9.57;;;;;;;14.68;42.57;102416.59;5043929;28;20021;-71
2021/11/24 04:31:54;;;;;;;10.60;9.05;;;;;;;14.64;42.60;102410.03;5028212;28;20029;-78
2021/11/24 04:34:20;;;;;;;11.32;8.50;;;;;;;14.38;43.39;102407.69;5051434;28;20059;-70
2021/11/24 04:36:45;;;;;;;11.90;9.48;;;;;;;14.37;42.95;102414.28;5052860;28;20067;-70
2021/11/24 04:39:11;;;;;;;11.52;8.80;;;;;;;14.37;43.31;102400.53;5052968;28;20151;-70
2021/11/24 04:41:36;;;;;;;11.05;8.82;;;;;;;14.42;43.44;102411.44;5049309;28;20029;-70
2021/11/24 04:44:06;;;;;;;17.27;10.13;;;;;;;14.35;43.48;102408.25;5040989;28;20045;-72
2021/11/24 04:46:32;;;;;;;14.18;9.90;;;;;;;14.59;43.20;102408.22;5042635;28;20032;-74
2021/11/24 04:48:57;;;;;;;11.57;8.43;;;;;;;14.50;43.22;102409.16;5041244;28;20029;-71
2021/11/24 04:51:23;;;;;;;13.15;9.38;;;;;;;14.37;43.55;102391.47;5023190;28;20403;-71
2021/11/24 04:53:49;;;;;;;9.25;8.30;;;;;;;14.30;43.95;102391.03;5042439;28;20052;-71
2021/11/24 04:56:15;;;;;;;12.18;8.73;;;;;;;14.59;43.21;102379.88;5040735;28;20124;-71
2021/11/24 04:58:52;;;;;;;10.27;8.05;;;;;;;14.56;43.21;102386.78;5041241;28;20021;-83
2021/11/24 05:01:18;;;;;;;11.40;8.45;;;;;;;14.45;43.56;102399.06;5024444;28;20486;-71
2021/11/24 05:03:44;;;;;;;11.35;9.15;;;;;;;14.53;43.07;102383.84;5039705;28;20029;-72
2021/11/24 05:06:11;;;;;;;9.40;8.38;;;;;;;14.46;43.42;102377.91;5024465;28;20025;-71
2021/11/24 05:08:37;;;;;;;12.68;8.45;;;;;;;14.46;43.16;102367.72;5040939;28;20396;-71
2021/11/24 05:11:03;;;;;;;10.20;8.38;;;;;;;14.44;43.21;102362.50;5040398;28;20021;-71
2021/11/24 05:13:28;;;;;;;10.02;8.70;;;;;;;14.38;43.50;102360.94;5042361;28;20029;-71
2021/11/24 05:16:03;;;;;;;11.55;9.00;;;;;;;14.47;43.19;102360.28;5040456;28;20390;-71
2021/11/24 05:18:41;;;;;;;14.13;9.13;;;;;;;14.51;43.23;102366.78;5040369;28;20021;-71
2021/11/24 05:21:17;;;;;;;13.00;9.15;;;;;;;14.58;42.96;102356.22;5040050;28;20470;-71
2021/11/24 05:23:43;;;;;;;10.68;8.15;;;;;;;14.57;43.17;102362.84;5041690;28;20464;-71
2021/11/24 05:26:10;;;;;;;9.93;8.88;;;;;;;14.39;43.49;102351.56;5039671;28;20024;-72
2021/11/24 05:28:37;;;;;;;13.77;8.25;;;;;;;14.46;43.56;102348.47;5040748;28;20361;-71
2021/11/24 05:31:05;;;;;;;13.30;8.85;;;;;;;14.47;43.41;102350.09;5042821;28;20048;-82
2021/11/24 05:33:31;;;;;;;9.57;8.25;;;;;;;14.44;43.48;102339.66;5040211;28;20041;-74
2021/11/24 05:35:57;;;;;;;11.50;9.48;;;;;;;14.43;43.52;102344.34;5041401;28;20388;-71
2021/11/24 05:38:22;;;;;;;11.10;7.47;;;;;;;14.42;43.43;102336.38;5041383;28;20022;-71
2021/11/24 05:40:48;;;;;;;9.13;7.85;;;;;;;14.36;43.38;102338.41;5039872;28;20025;-72
2021/11/24 05:43:14;;;;;;;12.15;8.27;;;;;;;14.29;43.83;102324.22;5039953;28;20052;-71
2021/11/24 05:45:48;;;;;;;9.07;7.57;;;;;;;14.45;43.42;102319.28;5040809;28;20017;-72
2021/11/24 05:48:14;;;;;;;10.23;7.68;;;;;;;14.32;43.43;102315.38;5044775;28;20510;-72
2021/11/24 05:50:42;;;;;;;10.38;7.82;;;;;;;14.23;43.39;102303.44;5040720;28;20067;-72
2021/11/24 05:53:08;;;;;;;9.15;7.22;;;;;;;14.16;43.54;102306.56;5041797;28;20013;-74
2021/11/24 05:55:34;;;;;;;10.10;7.65;;;;;;;14.00;43.64;102287.84;5040338;28;20028;-72
2021/11/24 05:57:59;;;;;;;11.98;7.32;;;;;;;14.01;43.45;102286.75;5042676;28;20022;-72
2021/11/24 06:00:25;;;;;;;10.75;7.68;;;;;;;13.95;43.41;102293.44;5035375;28;20048;-83
2021/11/24 06:02:51;;;;;;;9.13;7.47;;;;;;;13.78;43.81;102294.78;5032348;28;20025;-72
2021/11/24 06:05:16;;;;;;;11.10;7.68;;;;;;;13.80;43.64;102277.97;5032376;28;20040;-83
2021/11/24 06:07:42;;;;;;;9.95;7.50;;;;;;;13.76;43.63;102263.22;5032057;28;20484;-71
2021/11/24 06:10:10;;;;;;;10.32;7.40;;;;;;;13.68;43.71;102261.97;5031716;28;20025;-71
2021/11/24 06:12:36;;;;;;;11.65;8.23;;;;;;;13.67;43.59;102254.81;5030315;28;20483;-71
2021/11/24 06:15:03;;;;;;;9.20;7.40;;;;;;;13.65;43.59;102262.53;5030860;28;20034;-71
2021/11/24 06:17:28;;;;;;;12.93;8.38;;;;;;;13.57;43.61;102271.44;5030632;28;20534;-72
2021/11/24 06:19:54;;;;;;;11.82;7.38;;;;;;;13.58;43.83;102262.91;5031675;28;20022;-71
2021/11/24 06:22:20;;;;;;;9.95;7.15;;;;;;;13.54;43.72;102266.56;5032301;28;20444;-71
2021/11/24 06:24:45;;;;;;;8.18;6.88;;;;;;;13.49;44.03;102261.94;5035477;28;20496;-71
2021/11/24 06:27:11;;;;;;;9.15;7.38;;;;;;;13.51;43.85;102258.88;5035630;28;20533;-71
2021/11/24 06:29:36;;;;;;;8.10;7.18;;;;;;;13.49;44.15;102258.38;5035442;28;20037;-72
2021/11/24 06:32:02;;;;;;;10.23;6.72;;;;;;;13.47;44.11;102253.19;5035379;28;20032;-77
2021/11/24 06:34:28;;;;;;;11.15;7.60;;;;;;;13.45;44.06;102243.59;5035422;28;20080;-71
2021/11/24 06:36:53;;;;;;;12.05;7.20;;;;;;;13.43;44.33;102235.66;5035531;28;20034;-71
2021/11/24 06:39:23;;;;;;;10.02;7.80;;;;;;;13.57;43.86;102224.75;5035442;28;20030;-71
2021/11/24 06:41:49;;;;;;;10.68;7.55;;;;;;;13.60;43.69;102230.50;5035173;28;20026;-71
2021/11/24 06:44:18;;;;;;;9.93;6.80;;;;;;;13.57;43.81;102206.34;5034876;28;20057;-82
2021/11/24 06:46:43;;;;;;;10.63;6.70;;;;;;;13.49;44.13;102219.94;5034885;28;20431;-79
2021/11/24 06:49:09;;;;;;;10.23;6.60;;;;;;;13.46;44.08;102223.28;5035089;28;20021;-71
2021/11/24 06:51:35;;;;;;;15.13;7.75;;;;;;;13.38;44.33;102215.72;5034705;28;20029;-80
2021/11/24 06:54:01;;;;;;;9.68;5.88;;;;;;;13.35;44.44;102211.63;5035283;28;20033;-71
2021/11/24 06:56:27;;;;;;;9.80;6.82;;;;;;;13.32;44.77;102204.78;5017196;28;20542;-71
2021/11/24 06:58:52;;;;;;;9.77;7.13;;;;;;;13.37;44.79;102195.66;5034914;28;20040;-72
2021/11/24 07:01:18;;;;;;;9.52;6.70;;;;;;;13.25;45.32;102204.34;5034797;28;20029;-71
2021/11/24 07:03:44;;;;;;;11.43;7.43;;;;;;;13.13;45.56;102195.69;5034957;28;20109;-71
2021/11/24 07:06:09;;;;;;;12.07;7.18;;;;;;;13.48;44.79;102193.59;5034789;28;20045;-81
2021/11/24 07:08:35;;;;;;;10.63;7.60;;;;;;;13.54;44.56;102184.16;5034643;28;20365;-71
2021/11/24 07:11:00;;;;;;;9.88;6.57;;;;;;;13.64;44.56;102192.25;5034931;28;20025;-72
2021/11/24 07:13:26;;;;;;;11.57;6.80;;;;;;;13.63;44.85;102187.88;5034652;28;20562;-71
2021/11/24 07:15:52;;;;;;;11.80;6.78;;;;;;;13.66;45.00;102191.94;5034785;28;20025;-71
2021/11/24 07:18:17;;;;;;;9.23;6.90;;;;;;;13.72;44.83;102164.09;5016913;28;20392;-73
2021/11/24 07:20:43;;;;;;;8.05;6.32;;;;;;;13.81;44.77;102166.97;5034357;28;20029;-71
2021/11/24 07:23:09;;;;;;;12.70;6.50;;;;;;;13.94;44.53;102160.72;5034430;28;20115;-72
2021/11/24 07:25:35;;;;;;;9.93;6.78;;;;;;;13.89;44.92;102156.09;5034670;28;20468;-72
2021/11/24 07:28:01;;;;;;;13.32;7.00;;;;;;;13.82;45.25;102152.94;5034232;28;20057;-72
2021/11/24 07:30:27;;;;;;;11.32;6.85;;;;;;;14.00;44.75;102153.19;5034486;28;20026;-73
2021/11/24 07:32:52;;;;;;;9.18;6.22;;;;;;;14.15;44.70;102139.19;5034179;28;20025;-72
2021/11/24 07:35:18;;;;;;;10.05;6.78;;;;;;;14.17;44.69;102136.94;5016261;28;20037;-73
2021/11/24 07:37:44;;;;;;;11.20;7.38;;;;;;;14.17;44.87;102134.19;5034309;28;20036;-73
2021/11/24 07:40:11;;;;;;;11.68;6.93;;;;;;;14.18;44.94;102127.56;5016306;28;20025;-72
2021/11/24 07:42:38;;;;;;;10.18;6.50;;;;;;;14.32;44.50;102122.91;5034243;28;20034;-72
2021/11/24 07:45:06;;;;;;;12.27;7.03;;;;;;;14.31;44.71;102120.47;5033697;28;20045;-73
2021/11/24 07:47:32;;;;;;;10.05;6.10;;;;;;;14.30;45.29;102119.66;5034025;28;20079;-73
2021/11/24 07:49:58;;;;;;;10.05;6.45;;;;;;;14.35;45.14;102116.78;5035598;28;20475;-75
2021/11/24 07:52:24;;;;;;;11.25;6.50;;;;;;;14.38;45.04;102109.88;5035088;28;20024;-73
2021/11/24 07:54:49;;;;;;;11.07;6.18;;;;;;;14.49;45.02;102099.50;5033882;28;20500;-73
2021/11/24 07:57:17;;;;;;;8.45;6.10;;;;;;;14.32;45.60;102111.91;5033745;28;20029;-72
2021/11/24 07:59:43;;;;;;;12.27;6.45;;;;;;;14.53;45.25;102098.59;5033781;28;20037;-72
2021/11/24 08:02:08;;;;;;;9.88;6.38;;;;;;;14.53;45.48;102098.59;5015836;28;20040;-72
2021/11/24 08:04:34;;;;;;;10.88;6.50;;;;;;;14.69;44.98;102099.09;5033653;28;20030;-71
2021/11/24 08:07:00;;;;;;;9.68;6.03;;;;;;;14.62;45.40;102102.25;5033556;28;20038;-73
2021/11/24 08:09:28;;;;;;;10.73;6.35;;;;;;;14.61;45.69;102094.31;5033282;28;20483;-73
2021/11/24 08:11:55;;;;;;;7.85;5.70;;;;;;;14.70;45.58;102089.72;5033655;28;20021;-78
2021/11/24 08:14:21;;;;;;;8.57;6.35;;;;;;;14.63;45.98;102089.31;5033510;28;20108;-71
2021/11/24 08:16:46;;;;;;;10.48;6.63;;;;;;;14.77;45.64;102081.03;5015861;28;20152;-71
2021/11/24 08:19:12;;;;;;;7.78;5.88;;;;;;;14.41;46.94;102084.50;5032661;28;20025;-72
2021/11/24 08:21:37;;;;;;;11.30;6.53;;;;;;;14.62;46.52;102082.19;5031600;28;20034;-71
2021/11/24 08:24:04;;;;;;;8.38;6.72;;;;;;;14.80;46.29;102083.97;5014290;28;20037;-81
2021/11/24 08:26:29;;;;;;;13.32;7.95;;;;;;;14.81;46.40;102071.03;5032987;28;20030;-81
2021/11/24 08:28:55;;;;;;;10.25;6.78;;;;;;;15.02;45.76;102068.63;5031859;28;20668;-72
2021/11/24 08:31:21;;;;;;;9.80;6.80;;;;;;;14.88;46.13;102063.97;5030076;28;20033;-80
2021/11/24 08:33:47;;;;;;;10.35;6.80;;;;;;;15.04;46.02;102072.72;5013444;28;20040;-78
2021/11/24 08:36:15;;;;;;;10.68;7.28;;;;;;;15.04;46.26;102066.38;5013151;28;20029;-72
2021/11/24 08:38:41;;;;;;;9.45;7.07;;;;;;;15.06;46.20;102072.41;5030864;28;20022;-72
2021/11/24 08:41:09;;;;;;;12.80;7.82;;;;;;;15.12;46.03;102062.91;5030729;28;20034;-72
2021/11/24 08:43:34;;;;;;;14.85;7.82;;;;;;;15.06;46.41;102056.72;5030755;28;20120;-81
2021/11/24 08:46:00;;;;;;;12.93;7.82;;;;;;;15.08;46.58;102062.72;5030839;28;20029;-73
2021/11/24 08:48:26;;;;;;;12.07;8.68;;;;;;;15.08;47.08;102065.47;5031496;28;20384;-73
2021/11/24 08:50:52;;;;;;;25.40;10.45;;;;;;;15.15;46.81;102054.03;5031445;28;20033;-72
2021/11/24 08:53:19;;;;;;;12.88;7.65;;;;;;;15.11;47.14;102059.31;5031392;28;20084;-72
2021/11/24 08:55:45;;;;;;;15.30;7.65;;;;;;;15.25;46.88;102046.31;5031519;28;20021;-72
2021/11/24 08:58:11;;;;;;;19.77;8.55;;;;;;;15.25;46.90;102048.25;5032142;28;20464;-72
2021/11/24 09:00:37;;;;;;;17.58;7.55;;;;;;;15.08;47.67;102040.69;5032656;28;20037;-73
2021/11/24 09:03:02;;;;;;;11.10;7.53;;;;;;;15.06;47.95;102045.69;5032681;28;20041;-73
2021/11/24 09:05:29;;;;;;;15.65;7.97;;;;;;;15.26;47.11;102049.88;5032937;28;20526;-74
2021/11/24 09:07:56;;;;;;;13.75;7.32;;;;;;;14.63;49.34;102048.88;5032599;28;20057;-72
2021/11/24 09:10:21;;;;;;;11.30;7.03;;;;;;;14.92;48.23;102047.69;5032535;28;20049;-71
2021/11/24 09:12:48;;;;;;;11.30;7.75;;;;;;;15.07;47.83;102052.00;5032480;28;20039;-72
2021/11/24 09:15:13;;;;;;;15.05;8.50;;;;;;;15.19;47.45;102038.53;5032508;28;20038;-76
2021/11/24 09:17:39;;;;;;;16.83;7.65;;;;;;;15.32;47.14;102031.28;5032485;28;20590;-81
2021/11/24 09:20:05;;;;;;;11.30;6.53;;;;;;;15.36;46.93;102033.13;5032599;28;20112;-71
2021/11/24 09:22:31;;;;;;;12.20;8.45;;;;;;;15.36;47.08;102035.88;5032394;28;20025;-72
2021/11/24 09:24:59;;;;;;;13.63;8.13;;;;;;;15.37;47.42;102040.25;5032354;28;20039;-72
2021/11/24 09:27:30;;;;;;;13.52;8.27;;;;;;;15.53;47.30;102044.25;5014696;28;20044;-73
2021/11/24 09:29:57;;;;;;;19.83;8.77;;;;;;;15.58;47.17;102045.25;5032486;28;20488;-72
2021/11/24 09:32:24;;;;;;;11.90;7.57;;;;;;;15.16;48.74;102039.94;5032473;28;20033;-80
2021/11/24 09:34:50;;;;;;;12.02;7.60;;;;;;;15.54;47.74;102047.81;5014626;28;20112;-72
2021/11/24 09:37:15;;;;;;;10.75;7.93;;;;;;;15.59;47.51;102038.59;5032274;28;20113;-72
2021/11/24 09:39:41;;;;;;;14.90;8.40;;;;;;;15.45;48.01;102045.00;5032486;28;20040;-71
2021/11/24 09:42:07;;;;;;;13.75;8.60;;;;;;;15.59;47.78;102046.88;5032547;28;20483;-72
2021/11/24 09:44:33;;;;;;;16.08;8.18;;;;;;;15.20;49.07;102043.72;5031980;28;20057;-72
2021/11/24 09:47:00;;;;;;;10.23;8.32;;;;;;;15.52;48.01;102034.34;5031579;28;20500;-72
2021/11/24 09:49:27;;;;;;;12.32;8.00;;;;;;;15.46;48.56;102035.59;5014605;28;20127;-78
2021/11/24 09:51:53;;;;;;;14.43;8.45;;;;;;;15.53;48.24;102029.66;5031945;28;20029;-71
2021/11/24 09:54:19;;;;;;;11.30;8.00;;;;;;;15.70;48.07;102028.97;5032202;28;20053;-71
2021/11/24 09:56:46;;;;;;;14.98;8.27;;;;;;;15.81;47.56;102025.63;5015656;28;20036;-72
2021/11/24 09:59:13;;;;;;;12.00;8.98;;;;;;;15.83;47.79;102028.06;5036390;28;20423;-72
2021/11/24 10:01:39;;;;;;;12.43;8.80;;;;;;;15.85;47.86;102025.78;5036090;28;20107;-79
2021/11/24 10:04:06;;;;;;;13.70;8.02;;;;;;;15.80;48.04;102026.75;5018151;28;20021;-72
2021/11/24 10:06:34;;;;;;;17.13;8.85;;;;;;;15.92;47.99;102020.63;5035901;28;20025;-72
2021/11/24 10:09:01;;;;;;;12.13;9.25;;;;;;;15.84;48.31;102010.41;5018204;28;20017;-71
2021/11/24 10:11:27;;;;;;;11.73;7.88;;;;;;;16.04;47.84;102017.28;5035814;28;20057;-72
2021/11/24 10:13:53;;;;;;;8.68;6.85;;;;;;;15.91;48.14;102019.03;5035829;28;20119;-72
2021/11/24 10:16:23;;;;;;;11.82;7.50;;;;;;;15.67;48.44;102013.88;5035963;28;20033;-77
2021/11/24 10:18:57;;;;;;;13.80;8.60;;;;;;;15.97;48.02;102008.66;5036016;28;20564;-72
2021/11/24 10:21:23;;;;;;;10.30;7.28;;;;;;;15.86;48.46;102021.09;5035656;28;20026;-72
2021/11/24 10:23:49;;;;;;;9.40;6.72;;;;;;;15.62;49.05;102010.44;5017697;28;20030;-71
2021/11/24 10:26:28;;;;;;;9.77;7.43;;;;;;;15.82;48.40;102010.72;5035610;28;20030;-71
2021/11/24 10:29:09;;;;;;;9.38;7.18;;;;;;;15.64;49.02;102013.69;5035546;28;20436;-73
2021/11/24 10:31:42;;;;;;;14.70;8.27;;;;;;;16.00;48.32;102008.84;5035595;28;20484;-72
2021/11/24 10:34:17;;;;;;;12.15;8.02;;;;;;;15.81;48.89;102005.53;5035500;28;20068;-72
2021/11/24 10:37:08;;;;;;;8.55;6.68;;;;;;;16.12;47.88;102004.66;5035370;28;20026;-72
2021/11/24 10:39:56;;;;;;;7.80;5.75;;;;;;;16.17;47.87;102007.25;5035415;28;20450;-73
2021/11/24 10:42:33;;;;;;;11.88;7.18;;;;;;;16.32;47.52;102012.31;5017551;28;20026;-73
2021/11/24 10:45:14;;;;;;;8.98;5.90;;;;;;;15.97;48.58;101998.47;5034857;28;20057;-72
2021/11/24 10:47:52;;;;;;;11.00;6.55;;;;;;;16.08;48.49;102002.53;5018178;28;20021;-72
2021/11/24 10:50:20;;;;;;;10.68;6.00;;;;;;;16.21;48.32;101999.97;5035244;28;20029;-72
2021/11/24 10:52:47;;;;;;;7.53;5.10;;;;;;;16.39;47.79;101998.88;5035034;28;20032;-72
2021/11/24 10:55:19;;;;;;;11.35;6.35;;;;;;;16.25;48.02;101998.22;5035009;28;20025;-71
2021/11/24 10:58:16;;;;;;;9.13;6.05;;;;;;;16.43;47.44;101988.84;5035191;28;20349;-78
2021/11/24 11:00:44;;;;;;;10.20;6.50;;;;;;;16.44;47.54;101990.47;5034959;28;20517;-71
2021/11/24 11:03:11;;;;;;;9.93;6.53;;;;;;;16.49;47.41;101982.03;5034844;28;20025;-72
2021/11/24 11:05:41;;;;;;;14.95;6.40;;;;;;;16.61;46.98;101976.66;5034886;28;20065;-75
2021/11/24 11:08:17;;;;;;;10.40;5.70;;;;;;;16.72;46.95;101979.97;5016414;28;20033;-72
2021/11/24 11:10:53;;;;;;;10.52;5.53;;;;;;;16.77;47.04;101971.50;5034814;28;20147;-72
2021/11/24 11:13:23;;;;;;;9.43;5.22;;;;;;;16.71;46.83;101969.25;5017045;28;20144;-72
2021/11/24 11:15:53;;;;;;;9.23;5.18;;;;;;;16.86;46.60;101968.78;5034746;28;20022;-82
2021/11/24 11:18:39;;;;;;;13.05;6.10;;;;;;;16.83;46.69;101970.22;5034663;28;20353;-71
2021/11/24 11:21:09;;;;;;;6.55;4.40;;;;;;;16.79;46.99;101976.72;5034581;28;20022;-72